Time;durP1;ratioP1;P1;durP2;ratioP2;P2;SDS_P1;SDS_P2;PMS_P1;PMS_P2;Temp;Humidity;BMP_temperature;BMP_pressure;BME280_temperature;BME280_humidity;BME280_pressure;Samples;Min_cycle;Max_cycle;Signal;HPM_P1;HPM_P2
2020/12/29 00:00:25;;;;;;;7.30;2.25;;;5.60;99.90;;;;;;5108540;28;20197;-83
2020/12/29 00:02:52;;;;;;;3.72;1.77;;;5.70;99.90;;;;;;5103329;28;20197;-83
2020/12/29 00:05:18;;;;;;;3.03;1.55;;;5.60;99.90;;;;;;5119871;28;20204;-83
2020/12/29 00:07:53;;;;;;;3.30;1.40;;;5.70;99.90;;;;;;5127566;28;20224;-83
2020/12/29 00:10:21;;;;;;;3.25;1.13;;;5.60;99.90;;;;;;5111521;28;20193;-84
2020/12/29 00:12:48;;;;;;;3.72;0.95;;;5.40;99.90;;;;;;5103486;28;20236;-85
2020/12/29 00:15:15;;;;;;;5.95;1.40;;;5.30;99.90;;;;;;5114146;28;20252;-84
2020/12/29 00:17:42;;;;;;;2.40;1.10;;;5.50;99.90;;;;;;5124151;28;20562;-84
2020/12/29 00:20:10;;;;;;;3.97;1.10;;;5.30;99.90;;;;;;5093547;28;20242;-84
2020/12/29 00:22:37;;;;;;;3.83;1.42;;;5.30;99.90;;;;;;5104823;28;20207;-84
2020/12/29 00:25:04;;;;;;;4.85;1.00;;;5.40;99.90;;;;;;5110040;28;20227;-85
2020/12/29 00:27:31;;;;;;;2.95;1.23;;;5.40;99.90;;;;;;5129433;28;20217;-83
2020/12/29 00:29:57;;;;;;;2.88;1.30;;;5.20;99.90;;;;;;5124904;28;20218;-83
2020/12/29 00:32:24;;;;;;;3.42;1.55;;;5.40;99.90;;;;;;5124756;28;20228;-85
2020/12/29 00:34:51;;;;;;;4.55;1.50;;;5.40;99.90;;;;;;5125721;28;20694;-85
2020/12/29 00:37:18;;;;;;;2.85;0.95;;;5.40;99.90;;;;;;5097865;28;20239;-82
2020/12/29 00:39:44;;;;;;;3.33;1.10;;;5.50;99.90;;;;;;5135337;28;20201;-83
2020/12/29 00:42:11;;;;;;;2.90;1.00;;;5.40;99.90;;;;;;5135512;28;20211;-84
2020/12/29 00:44:37;;;;;;;3.45;1.00;;;5.40;99.90;;;;;;5105941;28;20212;-85
2020/12/29 00:47:04;;;;;;;3.15;1.00;;;5.30;99.90;;;;;;5102186;28;20235;-85
2020/12/29 00:49:31;;;;;;;2.20;0.80;;;5.40;99.90;;;;;;5118651;28;20196;-84
2020/12/29 00:51:58;;;;;;;2.90;1.15;;;5.40;99.90;;;;;;5119290;28;20228;-85
2020/12/29 00:54:25;;;;;;;2.20;0.77;;;5.50;99.90;;;;;;5098585;28;20285;-85
2020/12/29 00:56:51;;;;;;;2.42;0.88;;;5.40;99.90;;;;;;5102420;28;20236;-84
2020/12/29 00:59:18;;;;;;;2.45;0.90;;;5.60;99.90;;;;;;5123214;28;20234;-84
2020/12/29 01:01:45;;;;;;;3.38;1.15;;;5.40;99.90;;;;;;5123954;28;20201;-85
2020/12/29 01:04:11;;;;;;;2.65;0.90;;;5.80;99.90;;;;;;5121068;28;20366;-85
2020/12/29 01:06:38;;;;;;;2.42;0.77;;;5.60;99.90;;;;;;5106086;28;20215;-85
2020/12/29 01:09:05;;;;;;;2.65;0.80;;;5.70;99.90;;;;;;5101360;28;20319;-85
2020/12/29 01:11:32;;;;;;;2.65;0.60;;;5.40;99.90;;;;;;5103767;28;20678;-85
2020/12/29 01:13:59;;;;;;;2.60;0.70;;;5.70;99.90;;;;;;5102136;28;20711;-85
2020/12/29 01:16:26;;;;;;;3.47;0.60;;;5.50;99.90;;;;;;5102145;28;20546;-85
2020/12/29 01:18:52;;;;;;;2.53;1.00;;;5.60;99.90;;;;;;5116545;28;20220;-85
2020/12/29 01:21:19;;;;;;;2.28;0.60;;;5.80;99.90;;;;;;5122519;28;20212;-85
2020/12/29 01:23:45;;;;;;;2.45;0.85;;;5.70;99.90;;;;;;5114099;28;20205;-84
2020/12/29 01:26:21;;;;;;;2.13;0.65;;;5.70;99.90;;;;;;5107010;28;20240;-84
2020/12/29 01:28:48;;;;;;;2.30;0.70;;;5.70;99.90;;;;;;5120655;28;20260;-85
2020/12/29 01:31:14;;;;;;;2.30;0.90;;;5.40;99.90;;;;;;5128448;28;20193;-84
2020/12/29 01:33:41;;;;;;;2.88;0.60;;;5.60;99.90;;;;;;5108974;28;20220;-84
2020/12/29 01:36:09;;;;;;;2.38;0.70;;;5.70;99.90;;;;;;5107608;28;20266;-84
2020/12/29 01:38:36;;;;;;;2.00;0.60;;;5.50;99.90;;;;;;5109586;28;20303;-84
2020/12/29 01:41:02;;;;;;;2.00;0.65;;;5.60;99.90;;;;;;5108527;28;20209;-85
2020/12/29 01:43:30;;;;;;;2.40;0.80;;;5.40;99.90;;;;;;5108520;28;20273;-85
2020/12/29 01:45:57;;;;;;;2.80;0.93;;;5.70;99.90;;;;;;5108394;28;20235;-85
2020/12/29 01:48:25;;;;;;;2.42;0.95;;;5.70;99.90;;;;;;5118239;28;20208;-85
2020/12/29 01:50:51;;;;;;;1.80;0.50;;;5.70;99.90;;;;;;5129628;28;20209;-85
2020/12/29 01:53:18;;;;;;;2.25;0.70;;;5.70;99.90;;;;;;5107291;28;20221;-85
2020/12/29 01:55:44;;;;;;;2.30;0.93;;;5.80;99.90;;;;;;5104858;28;20231;-84
2020/12/29 01:58:11;;;;;;;2.70;0.90;;;5.80;99.90;;;;;;5124862;28;20235;-84
2020/12/29 02:00:39;;;;;;;2.00;0.60;;;5.60;99.90;;;;;;5130512;28;20205;-84
2020/12/29 02:03:06;;;;;;;2.58;0.80;;;5.70;99.90;;;;;;5113627;28;20281;-84
2020/12/29 02:05:33;;;;;;;2.20;0.70;;;5.60;99.90;;;;;;5100344;28;20209;-84
2020/12/29 02:08:00;;;;;;;2.30;0.80;;;5.60;99.90;;;;;;5098762;28;20225;-84
2020/12/29 02:10:27;;;;;;;2.30;0.65;;;5.70;99.90;;;;;;5104732;28;20234;-83
2020/12/29 02:12:55;;;;;;;2.00;0.70;;;6.00;99.90;;;;;;5108745;28;20213;-84
2020/12/29 02:15:22;;;;;;;2.60;0.70;;;5.70;99.90;;;;;;5102809;28;20644;-85
2020/12/29 02:17:50;;;;;;;2.22;0.70;;;5.90;99.90;;;;;;5123845;27;20235;-85
2020/12/29 02:20:16;;;;;;;2.00;0.60;;;5.90;99.90;;;;;;5124251;28;20628;-85
2020/12/29 02:22:43;;;;;;;2.60;0.80;;;5.90;99.90;;;;;;5103252;28;20221;-85
2020/12/29 02:25:12;;;;;;;2.45;0.70;;;5.80;99.90;;;;;;5100049;28;20212;-85
2020/12/29 02:27:45;;;;;;;2.17;0.82;;;6.10;99.90;;;;;;5080291;28;20221;-85
2020/12/29 02:30:12;;;;;;;2.30;0.57;;;5.90;99.90;;;;;;5079592;28;20319;-85
2020/12/29 02:32:39;;;;;;;2.42;0.85;;;6.10;99.90;;;;;;5080842;28;20536;-85
2020/12/29 02:35:07;;;;;;;2.75;0.80;;;5.90;99.90;;;;;;5086835;28;20204;-85
2020/12/29 02:37:33;;;;;;;2.88;0.80;;;5.80;99.90;;;;;;5088256;28;20227;-85
2020/12/29 02:40:02;;;;;;;2.20;0.80;;;6.10;99.90;;;;;;5117205;28;20215;-85
2020/12/29 02:42:28;;;;;;;2.30;0.80;;;6.00;99.90;;;;;;5091610;28;20257;-85
2020/12/29 02:44:55;;;;;;;2.05;0.65;;;6.30;99.90;;;;;;5101112;28;20214;-85
2020/12/29 02:47:21;;;;;;;2.25;0.57;;;6.10;99.90;;;;;;5102754;28;20228;-84
2020/12/29 02:49:48;;;;;;;1.88;0.55;;;6.10;99.90;;;;;;5105859;28;20197;-85
2020/12/29 02:52:14;;;;;;;2.63;0.60;;;6.20;99.90;;;;;;5106155;28;20209;-83
2020/12/29 02:54:41;;;;;;;3.60;0.70;;;6.00;99.90;;;;;;5101617;28;20206;-83
2020/12/29 02:57:08;;;;;;;1.90;0.50;;;6.20;99.90;;;;;;5111460;28;20228;-82
2020/12/29 02:59:35;;;;;;;2.10;0.50;;;6.20;99.90;;;;;;5133756;28;20196;-83
2020/12/29 03:02:01;;;;;;;2.45;0.57;;;5.90;99.90;;;;;;5118744;28;20220;-82
2020/12/29 03:04:28;;;;;;;2.20;0.55;;;6.20;99.90;;;;;;5125184;28;20205;-83
2020/12/29 03:06:54;;;;;;;3.00;0.70;;;6.20;99.90;;;;;;5121096;28;20198;-83
2020/12/29 03:09:21;;;;;;;2.70;0.50;;;6.20;99.90;;;;;;5097547;28;20550;-83
2020/12/29 03:11:48;;;;;;;2.88;1.48;;;6.20;99.90;;;;;;5106552;28;20231;-85
2020/12/29 03:14:15;;;;;;;2.17;0.55;;;6.10;99.90;;;;;;5107563;28;20232;-83
2020/12/29 03:16:42;;;;;;;2.10;0.63;;;5.90;99.90;;;;;;5124286;28;20194;-83
2020/12/29 03:19:08;;;;;;;2.15;0.68;;;5.80;99.90;;;;;;5112056;28;20242;-83
2020/12/29 03:21:35;;;;;;;2.00;0.50;;;6.00;99.90;;;;;;5111929;28;20208;-83
2020/12/29 03:24:01;;;;;;;1.80;0.40;;;5.90;99.90;;;;;;5113557;28;20209;-83
2020/12/29 03:26:28;;;;;;;2.75;0.52;;;6.30;99.90;;;;;;5110145;28;20209;-83
2020/12/29 03:28:54;;;;;;;2.00;0.50;;;5.90;99.90;;;;;;5109458;28;20250;-83
2020/12/29 03:31:22;;;;;;;2.15;0.57;;;6.00;99.90;;;;;;5118081;28;20200;-83
2020/12/29 03:33:49;;;;;;;1.80;0.40;;;6.00;99.90;;;;;;5117976;28;20217;-84
2020/12/29 03:36:16;;;;;;;1.90;0.60;;;6.00;99.90;;;;;;5107544;28;20213;-82
2020/12/29 03:38:43;;;;;;;7.78;0.55;;;6.10;99.90;;;;;;5095598;28;20233;-82
2020/12/29 03:41:09;;;;;;;1.80;0.40;;;5.80;99.90;;;;;;5129525;28;20688;-82
2020/12/29 03:43:36;;;;;;;1.80;0.50;;;6.00;99.90;;;;;;5130183;28;20610;-82
2020/12/29 03:46:02;;;;;;;2.00;0.52;;;5.80;99.90;;;;;;5131452;28;20201;-81
2020/12/29 03:48:30;;;;;;;1.80;0.50;;;6.00;99.90;;;;;;5131908;28;20220;-82
2020/12/29 03:50:56;;;;;;;2.00;0.50;;;5.90;99.90;;;;;;5127548;28;20197;-82
2020/12/29 03:53:23;;;;;;;2.70;0.55;;;5.90;99.90;;;;;;5111788;28;20225;-79
2020/12/29 03:55:49;;;;;;;1.90;0.50;;;5.70;99.90;;;;;;5104190;28;20208;-81
2020/12/29 03:58:16;;;;;;;1.83;0.50;;;5.70;99.90;;;;;;5116099;28;20228;-82
2020/12/29 04:00:42;;;;;;;2.05;0.52;;;5.80;99.90;;;;;;5119831;28;20709;-82
2020/12/29 04:03:09;;;;;;;2.00;0.40;;;5.80;99.90;;;;;;5101495;28;20331;-81
2020/12/29 04:05:36;;;;;;;2.17;0.50;;;5.70;99.90;;;;;;5102116;28;20203;-81
2020/12/29 04:08:03;;;;;;;2.00;0.50;;;5.80;99.90;;;;;;5101186;28;20229;-79
2020/12/29 04:10:29;;;;;;;1.80;0.40;;;5.80;99.90;;;;;;5101857;28;20212;-82
2020/12/29 04:12:56;;;;;;;2.47;0.70;;;6.10;99.90;;;;;;5087596;28;20703;-81
2020/12/29 04:15:23;;;;;;;2.00;0.50;;;5.90;99.90;;;;;;5083072;28;20217;-82
2020/12/29 04:17:49;;;;;;;1.98;0.45;;;6.00;99.90;;;;;;5087548;28;20225;-79
2020/12/29 04:20:16;;;;;;;2.33;0.50;;;5.90;99.90;;;;;;5100803;28;20711;-81
2020/12/29 04:22:43;;;;;;;1.90;0.50;;;5.80;99.90;;;;;;5102460;28;20209;-82
2020/12/29 04:25:11;;;;;;;2.17;0.55;;;5.90;99.90;;;;;;5109586;28;20289;-81
2020/12/29 04:27:40;;;;;;;2.13;0.40;;;6.00;99.90;;;;;;5122799;28;20675;-81
2020/12/29 04:30:09;;;;;;;2.92;0.60;;;5.90;99.90;;;;;;5121454;28;20662;-82
2020/12/29 04:32:35;;;;;;;2.40;0.70;;;5.80;99.90;;;;;;5118668;28;20848;-82
2020/12/29 04:35:02;;;;;;;2.00;0.50;;;5.90;99.90;;;;;;5112823;28;20253;-81
2020/12/29 04:37:29;;;;;;;2.10;0.55;;;6.00;99.90;;;;;;5121447;28;20232;-80
2020/12/29 04:39:56;;;;;;;2.60;0.60;;;6.00;99.90;;;;;;5122914;28;20209;-81
2020/12/29 04:42:24;;;;;;;2.97;0.65;;;5.70;99.90;;;;;;5121345;28;20197;-81
2020/12/29 04:44:51;;;;;;;2.00;0.50;;;6.00;99.90;;;;;;5122927;28;20587;-81
2020/12/29 04:47:18;;;;;;;2.53;0.70;;;5.70;99.90;;;;;;5114927;28;20225;-80
2020/12/29 04:49:45;;;;;;;1.95;0.47;;;5.90;99.90;;;;;;5101187;28;20581;-82
2020/12/29 04:52:12;;;;;;;2.30;0.70;;;6.00;99.90;;;;;;5116558;28;20279;-82
2020/12/29 04:54:41;;;;;;;2.30;0.80;;;5.70;99.90;;;;;;5113722;28;20245;-81
2020/12/29 04:57:11;;;;;;;2.10;0.55;;;6.00;99.90;;;;;;5118139;28;20216;-81
2020/12/29 04:59:38;;;;;;;2.10;0.50;;;5.80;99.90;;;;;;5126347;28;20207;-82
2020/12/29 05:02:05;;;;;;;2.15;0.60;;;5.80;99.90;;;;;;5107195;28;20198;-81
2020/12/29 05:04:31;;;;;;;3.45;0.68;;;6.00;99.90;;;;;;5102931;28;20185;-80
2020/12/29 05:06:59;;;;;;;2.10;0.63;;;6.00;99.90;;;;;;5114541;28;20696;-80
2020/12/29 05:09:28;;;;;;;2.00;0.55;;;5.80;99.90;;;;;;5113716;28;20215;-79
2020/12/29 05:11:55;;;;;;;5.40;1.38;;;5.60;99.90;;;;;;5107194;28;20443;-81
2020/12/29 05:14:23;;;;;;;2.58;0.50;;;5.60;99.90;;;;;;5107553;28;20217;-81
2020/12/29 05:16:50;;;;;;;3.30;0.52;;;5.70;99.90;;;;;;5085714;28;20656;-82
2020/12/29 05:19:18;;;;;;;2.00;0.60;;;5.70;99.90;;;;;;5092067;28;20216;-81
2020/12/29 05:21:45;;;;;;;3.13;0.60;;;5.70;99.90;;;;;;5122595;28;20325;-82
2020/12/29 05:24:13;;;;;;;2.17;0.70;;;5.80;99.90;;;;;;5099561;28;20619;-82
2020/12/29 05:26:40;;;;;;;3.20;0.70;;;5.80;99.90;;;;;;5082066;28;20235;-81
2020/12/29 05:29:11;;;;;;;3.47;0.70;;;5.90;99.90;;;;;;5109661;28;20677;-81
2020/12/29 05:31:40;;;;;;;3.55;0.88;;;5.80;99.90;;;;;;5101444;28;20205;-82
2020/12/29 05:34:06;;;;;;;2.95;0.80;;;5.70;99.90;;;;;;5101322;28;20225;-80
2020/12/29 05:36:37;;;;;;;3.40;0.55;;;5.70;99.90;;;;;;5109702;28;20227;-82
2020/12/29 05:39:07;;;;;;;2.00;0.47;;;5.70;99.90;;;;;;5133089;28;20225;-82
2020/12/29 05:41:38;;;;;;;2.60;0.50;;;5.80;99.90;;;;;;5126961;28;20210;-81
2020/12/29 05:44:06;;;;;;;2.63;0.70;;;5.90;99.90;;;;;;5107720;28;20267;-82
2020/12/29 05:46:33;;;;;;;2.40;0.60;;;5.80;99.90;;;;;;5114597;28;20197;-82
2020/12/29 05:49:01;;;;;;;2.20;0.60;;;5.90;99.90;;;;;;5098651;28;20222;-82
2020/12/29 05:51:28;;;;;;;2.80;0.50;;;5.80;99.90;;;;;;5084015;28;20216;-81
2020/12/29 05:54:02;;;;;;;1.90;0.50;;;5.80;99.90;;;;;;5100111;28;20251;-82
2020/12/29 05:56:31;;;;;;;2.10;0.60;;;5.90;99.90;;;;;;5101532;28;20207;-81
2020/12/29 05:58:59;;;;;;;1.95;0.50;;;5.80;99.90;;;;;;5106987;28;20221;-81
2020/12/29 06:01:42;;;;;;;2.13;0.60;;;6.00;99.90;;;;;;5103813;28;20322;-81
2020/12/29 06:04:10;;;;;;;2.30;0.52;;;5.60;99.90;;;;;;5118547;28;20200;-81
2020/12/29 06:06:38;;;;;;;2.10;0.60;;;5.80;99.90;;;;;;5107557;28;20570;-81
2020/12/29 06:09:07;;;;;;;3.35;0.60;;;5.70;99.90;;;;;;5118447;27;20712;-82
2020/12/29 06:11:38;;;;;;;3.47;0.75;;;5.70;99.90;;;;;;5104940;28;20226;-81
2020/12/29 06:14:11;;;;;;;2.00;0.60;;;5.50;99.90;;;;;;5080164;28;20224;-82
2020/12/29 06:16:40;;;;;;;2.65;0.60;;;5.60;99.90;;;;;;5103309;28;20193;-81
2020/12/29 06:19:19;;;;;;;2.60;0.57;;;5.40;99.90;;;;;;5102926;28;20230;-81
2020/12/29 06:21:52;;;;;;;2.35;0.75;;;5.80;99.90;;;;;;5111095;28;20291;-81
2020/12/29 06:24:21;;;;;;;1.90;0.57;;;5.50;99.90;;;;;;5113658;28;20209;-81
2020/12/29 06:26:52;;;;;;;2.53;0.90;;;5.60;99.90;;;;;;5090671;28;20219;-80
2020/12/29 06:29:21;;;;;;;2.00;0.63;;;5.40;99.90;;;;;;5080697;28;20255;-81
2020/12/29 06:31:51;;;;;;;1.80;0.50;;;5.60;99.90;;;;;;5100995;28;20298;-80
2020/12/29 06:34:19;;;;;;;2.65;0.73;;;5.60;99.90;;;;;;5119167;28;20224;-80
2020/12/29 06:36:48;;;;;;;2.80;0.70;;;5.40;99.90;;;;;;5099914;28;20212;-80
2020/12/29 06:39:17;;;;;;;2.22;0.60;;;5.50;99.90;;;;;;5097806;28;20208;-81
2020/12/29 06:41:43;;;;;;;2.75;0.60;;;5.50;99.90;;;;;;5097139;28;20205;-81
2020/12/29 06:44:13;;;;;;;2.20;0.60;;;5.70;99.90;;;;;;5096953;28;20262;-81
2020/12/29 06:46:40;;;;;;;2.00;0.50;;;5.60;99.90;;;;;;5098786;28;20201;-81
2020/12/29 06:49:20;;;;;;;2.03;0.70;;;5.70;99.90;;;;;;5104792;28;20208;-81
2020/12/29 06:51:48;;;;;;;2.85;0.77;;;5.60;99.90;;;;;;5113637;28;20201;-82
2020/12/29 06:54:20;;;;;;;3.83;0.80;;;5.70;99.90;;;;;;5096379;28;20229;-80
2020/12/29 06:57:00;;;;;;;3.28;0.60;;;5.80;99.90;;;;;;5082866;28;20206;-80
2020/12/29 06:59:37;;;;;;;2.75;1.05;;;5.30;99.90;;;;;;5095541;28;20232;-82
2020/12/29 07:02:04;;;;;;;3.83;0.95;;;5.70;99.90;;;;;;5084547;28;20209;-82
2020/12/29 07:04:34;;;;;;;4.35;0.70;;;5.70;99.90;;;;;;5114018;28;20204;-82
2020/12/29 07:07:00;;;;;;;2.78;0.88;;;5.60;99.90;;;;;;5106399;28;20237;-82
2020/12/29 07:09:27;;;;;;;2.00;0.50;;;5.60;99.90;;;;;;5119868;28;20196;-82
2020/12/29 07:12:05;;;;;;;3.20;0.65;;;5.50;99.90;;;;;;5096284;28;20193;-82
2020/12/29 07:14:32;;;;;;;2.80;0.95;;;5.50;99.90;;;;;;5109934;28;20213;-82
2020/12/29 07:16:59;;;;;;;2.47;0.90;;;5.70;99.90;;;;;;5099915;28;20192;-82
2020/12/29 07:19:28;;;;;;;2.10;0.70;;;5.80;99.90;;;;;;5109667;28;20209;-82
2020/12/29 07:21:55;;;;;;;2.25;0.70;;;5.70;99.90;;;;;;5103747;28;20212;-81
2020/12/29 07:24:22;;;;;;;2.20;0.60;;;5.60;99.90;;;;;;5115738;28;20655;-82
2020/12/29 07:27:03;;;;;;;2.10;0.70;;;5.70;99.90;;;;;;5103115;28;20240;-82
2020/12/29 07:29:29;;;;;;;4.93;2.25;;;5.60;99.90;;;;;;5106692;28;20229;-82
2020/12/29 07:32:00;;;;;;;3.00;0.90;;;5.90;99.90;;;;;;5124784;28;20220;-81
2020/12/29 07:34:32;;;;;;;3.00;1.05;;;5.80;99.90;;;;;;5118092;28;20232;-81
2020/12/29 07:37:00;;;;;;;3.72;1.00;;;5.80;99.90;;;;;;5103074;28;20197;-81
2020/12/29 07:39:27;;;;;;;2.63;0.80;;;5.90;99.90;;;;;;5115337;28;20287;-82
2020/12/29 07:41:53;;;;;;;3.17;0.90;;;5.90;99.90;;;;;;5108275;28;20213;-82
2020/12/29 07:44:20;;;;;;;2.60;0.77;;;5.70;99.90;;;;;;5116511;28;20444;-81
2020/12/29 07:46:48;;;;;;;4.43;1.10;;;5.90;99.90;;;;;;5102717;28;20201;-81
2020/12/29 07:49:15;;;;;;;5.53;0.90;;;5.70;99.90;;;;;;5119555;28;20208;-81
2020/12/29 07:51:48;;;;;;;6.07;1.30;;;5.90;99.90;;;;;;5099604;28;20205;-81
2020/12/29 07:54:18;;;;;;;3.50;1.05;;;5.90;99.90;;;;;;5100219;28;20588;-80
2020/12/29 07:56:45;;;;;;;2.50;0.70;;;5.80;99.90;;;;;;5109167;28;20189;-81
2020/12/29 07:59:12;;;;;;;4.80;0.93;;;5.90;99.90;;;;;;5112483;27;20197;-81
2020/12/29 08:01:54;;;;;;;2.10;0.70;;;5.80;99.90;;;;;;5090520;28;20204;-80
2020/12/29 08:04:25;;;;;;;3.15;0.80;;;5.90;99.90;;;;;;5114691;28;20232;-81
2020/12/29 08:06:51;;;;;;;2.40;0.90;;;5.80;99.90;;;;;;5098190;28;20293;-81
2020/12/29 08:09:19;;;;;;;6.22;1.10;;;6.00;99.90;;;;;;5113854;28;20283;-81
2020/12/29 08:11:46;;;;;;;2.70;0.88;;;6.10;99.90;;;;;;5097689;28;20230;-79
2020/12/29 08:14:12;;;;;;;4.25;1.05;;;6.00;99.90;;;;;;5099422;28;20286;-80
2020/12/29 08:16:40;;;;;;;3.75;1.27;;;5.90;99.90;;;;;;5111021;22;20221;-85
2020/12/29 08:19:09;;;;;;;3.47;1.10;;;6.00;99.90;;;;;;5061540;28;20217;-84
2020/12/29 08:21:37;;;;;;;2.53;1.05;;;6.10;99.90;;;;;;5068389;28;20202;-84
2020/12/29 08:24:06;;;;;;;4.20;1.85;;;6.00;99.90;;;;;;5052303;28;20211;-85
2020/12/29 08:26:34;;;;;;;3.47;0.90;;;6.10;99.90;;;;;;5050757;28;20211;-84
2020/12/29 08:29:02;;;;;;;3.15;1.60;;;6.20;99.90;;;;;;5066103;28;20225;-83
2020/12/29 08:31:29;;;;;;;2.80;1.10;;;6.00;99.90;;;;;;5061911;28;20649;-83
2020/12/29 08:33:58;;;;;;;3.35;0.98;;;6.10;99.90;;;;;;5060298;28;20664;-83
2020/12/29 08:36:26;;;;;;;2.55;1.05;;;6.40;99.90;;;;;;5057861;28;20202;-82
2020/12/29 08:39:22;;;;;;;2.20;0.80;;;6.30;99.90;;;;;;5057002;28;20203;-83
2020/12/29 08:41:54;;;;;;;2.65;1.02;;;6.30;99.90;;;;;;5057629;28;20354;-84
2020/12/29 08:44:28;;;;;;;5.40;1.50;;;6.30;99.90;;;;;;5056808;28;20610;-84
2020/12/29 08:46:55;;;;;;;6.53;1.60;;;6.40;99.90;;;;;;5056609;28;20262;-81
2020/12/29 08:49:29;;;;;;;3.85;1.25;;;6.30;99.90;;;;;;5055820;28;20721;-82
2020/12/29 08:51:56;;;;;;;3.25;1.40;;;6.30;99.90;;;;;;5056487;28;20814;-82
2020/12/29 08:54:26;;;;;;;5.15;1.58;;;6.20;99.90;;;;;;5056006;28;20210;-81
2020/12/29 08:57:01;;;;;;;4.85;1.30;;;6.30;99.90;;;;;;5055919;28;20254;-82
2020/12/29 08:59:36;;;;;;;4.07;1.13;;;6.40;99.90;;;;;;5055441;28;20195;-82
2020/12/29 09:02:03;;;;;;;6.45;1.55;;;6.10;99.90;;;;;;5070630;28;20207;-82
2020/12/29 09:04:31;;;;;;;4.28;1.23;;;6.20;99.90;;;;;;5059040;28;20294;-80
2020/12/29 09:07:03;;;;;;;9.20;1.60;;;6.20;99.90;;;;;;5052235;28;20222;-79
2020/12/29 09:09:34;;;;;;;3.05;1.30;;;6.10;99.90;;;;;;5052513;28;20206;-80
2020/12/29 09:12:16;;;;;;;4.97;1.00;;;6.30;99.90;;;;;;5052472;28;20221;-83
2020/12/29 09:14:55;;;;;;;3.00;1.00;;;6.40;99.90;;;;;;5051697;28;20257;-83
2020/12/29 09:17:22;;;;;;;3.03;0.95;;;6.20;99.90;;;;;;5054946;28;20236;-80
2020/12/29 09:20:19;;;;;;;4.07;1.75;;;6.10;99.90;;;;;;5053861;28;20206;-79
2020/12/29 09:22:53;;;;;;;3.70;1.40;;;6.20;99.90;;;;;;5053870;28;20202;-79
2020/12/29 09:25:28;;;;;;;2.95;1.13;;;6.00;99.90;;;;;;5051560;28;20285;-79
2020/12/29 09:28:12;;;;;;;2.80;1.20;;;6.10;99.90;;;;;;5052472;28;20222;-84
2020/12/29 09:30:40;;;;;;;2.30;0.75;;;6.00;99.90;;;;;;5053347;28;20216;-79
2020/12/29 09:33:06;;;;;;;2.85;0.80;;;6.00;99.90;;;;;;5056768;28;20206;-80
2020/12/29 09:35:33;;;;;;;2.65;0.70;;;6.00;99.90;;;;;;5063592;28;20217;-83
2020/12/29 09:38:01;;;;;;;2.45;0.90;;;6.00;99.90;;;;;;5070228;28;20232;-83
2020/12/29 09:40:29;;;;;;;3.10;0.93;;;6.10;99.90;;;;;;5070380;28;20199;-84
2020/12/29 09:42:56;;;;;;;3.50;1.10;;;6.30;99.90;;;;;;5053545;28;20203;-79
2020/12/29 09:45:25;;;;;;;3.45;1.00;;;6.20;99.90;;;;;;5052013;28;20205;-79
2020/12/29 09:47:52;;;;;;;2.83;1.00;;;6.10;99.90;;;;;;5052037;28;20246;-80
2020/12/29 09:50:19;;;;;;;2.63;0.90;;;6.10;99.90;;;;;;5058145;28;20206;-80
2020/12/29 09:52:45;;;;;;;3.08;1.20;;;6.10;99.90;;;;;;5059294;28;20207;-80
2020/12/29 09:55:12;;;;;;;4.47;1.10;;;6.20;99.90;;;;;;5060699;28;20234;-81
2020/12/29 09:57:39;;;;;;;2.28;0.80;;;6.20;99.90;;;;;;5062479;28;20218;-80
2020/12/29 10:00:07;;;;;;;2.70;1.00;;;6.30;99.90;;;;;;5057447;28;20207;-79
2020/12/29 10:02:34;;;;;;;2.53;1.10;;;6.20;99.90;;;;;;5053925;28;20241;-78
2020/12/29 10:05:01;;;;;;;2.95;1.05;;;6.20;99.90;;;;;;5051683;28;20201;-80
2020/12/29 10:07:28;;;;;;;3.65;1.50;;;6.20;99.90;;;;;;5050230;28;20222;-77
2020/12/29 10:09:54;;;;;;;3.88;1.17;;;6.30;99.90;;;;;;5049305;28;20211;-78
2020/12/29 10:12:21;;;;;;;2.38;1.10;;;6.30;99.90;;;;;;5053120;28;20210;-84
2020/12/29 10:14:47;;;;;;;2.83;0.90;;;6.40;99.90;;;;;;5056156;28;20272;-84
2020/12/29 10:17:14;;;;;;;3.00;0.95;;;6.60;99.90;;;;;;5058513;28;20392;-84
2020/12/29 10:19:42;;;;;;;4.53;1.13;;;6.60;99.90;;;;;;5057933;28;20235;-86
2020/12/29 10:22:08;;;;;;;3.55;1.30;;;6.60;99.90;;;;;;5055913;28;20199;-84
2020/12/29 10:24:35;;;;;;;2.80;1.20;;;6.50;99.90;;;;;;5055683;28;20202;-86
2020/12/29 10:27:01;;;;;;;2.40;1.08;;;6.50;99.90;;;;;;5055123;28;20222;-86
2020/12/29 10:29:28;;;;;;;3.45;1.65;;;6.60;99.90;;;;;;5053447;28;20210;-84
2020/12/29 10:31:55;;;;;;;5.07;1.25;;;6.50;99.90;;;;;;5046263;28;20226;-86
2020/12/29 10:34:21;;;;;;;2.85;1.15;;;6.40;99.90;;;;;;5056360;28;20235;-83
2020/12/29 10:36:49;;;;;;;3.13;1.20;;;6.70;99.90;;;;;;5054491;28;20245;-83
2020/12/29 10:39:15;;;;;;;3.95;1.40;;;6.60;99.90;;;;;;5054931;28;20297;-85
2020/12/29 10:41:42;;;;;;;2.65;0.80;;;6.60;99.90;;;;;;5053927;28;20266;-82
2020/12/29 10:44:10;;;;;;;3.95;1.50;;;6.80;99.90;;;;;;5053750;28;20202;-83
2020/12/29 10:46:37;;;;;;;6.75;2.08;;;6.90;99.90;;;;;;5052620;28;20251;-78
2020/12/29 10:49:04;;;;;;;6.93;1.52;;;6.80;99.90;;;;;;5052580;28;20212;-82
2020/12/29 10:51:31;;;;;;;3.00;0.95;;;6.90;99.90;;;;;;5051823;28;20214;-81
2020/12/29 10:53:58;;;;;;;3.30;1.23;;;6.90;99.90;;;;;;5051605;28;20229;-82
2020/12/29 10:56:25;;;;;;;4.13;1.80;;;6.90;99.90;;;;;;5052670;28;20274;-81
2020/12/29 10:58:51;;;;;;;4.18;1.33;;;6.90;99.90;;;;;;5051513;28;20210;-81
2020/12/29 11:01:23;;;;;;;4.47;1.00;;;7.20;99.90;;;;;;5052313;28;20210;-81
2020/12/29 11:03:51;;;;;;;4.35;1.15;;;6.80;99.90;;;;;;5051272;28;20202;-81
2020/12/29 11:06:18;;;;;;;3.10;1.17;;;6.90;99.90;;;;;;5052469;28;20219;-82
2020/12/29 11:08:45;;;;;;;3.35;1.38;;;6.90;99.90;;;;;;5051320;28;20226;-78
2020/12/29 11:11:13;;;;;;;3.00;0.90;;;7.00;99.90;;;;;;5049664;28;20280;-78
2020/12/29 11:13:40;;;;;;;4.88;1.27;;;7.00;99.90;;;;;;5051386;28;20219;-85
2020/12/29 11:16:07;;;;;;;2.45;1.00;;;7.00;99.90;;;;;;5053848;28;20285;-79
2020/12/29 11:18:33;;;;;;;3.65;1.30;;;7.00;99.90;;;;;;5053548;28;20237;-78
2020/12/29 11:21:00;;;;;;;3.17;1.42;;;7.10;99.90;;;;;;5054896;28;20209;-79
2020/12/29 11:23:28;;;;;;;2.40;0.80;;;7.40;99.90;;;;;;5051839;28;20199;-79
2020/12/29 11:25:58;;;;;;;3.00;0.93;;;7.40;99.90;;;;;;5035469;28;20217;-81
2020/12/29 11:28:25;;;;;;;2.78;1.17;;;7.50;99.90;;;;;;5041730;28;20234;-81
2020/12/29 11:30:53;;;;;;;3.10;1.27;;;7.40;99.90;;;;;;5038341;28;20211;-83
2020/12/29 11:33:19;;;;;;;6.55;2.20;;;7.60;99.90;;;;;;5039475;28;20273;-83
2020/12/29 11:35:48;;;;;;;4.00;1.10;;;7.40;99.90;;;;;;5045438;28;20268;-83
2020/12/29 11:38:15;;;;;;;4.78;0.75;;;7.70;99.90;;;;;;5058029;28;20218;-84
2020/12/29 11:40:42;;;;;;;4.30;1.95;;;7.50;99.90;;;;;;5057622;28;20217;-83
2020/12/29 11:43:09;;;;;;;3.22;1.25;;;7.50;99.90;;;;;;5058359;28;20211;-84
2020/12/29 11:45:36;;;;;;;2.60;0.80;;;7.50;99.90;;;;;;5048671;28;20294;-83
2020/12/29 11:48:03;;;;;;;4.13;1.17;;;7.60;99.90;;;;;;5054832;28;20252;-84
2020/12/29 11:50:30;;;;;;;4.30;0.90;;;7.70;99.90;;;;;;5058416;28;20695;-84
2020/12/29 11:52:56;;;;;;;3.30;0.80;;;7.80;99.90;;;;;;5058735;28;20202;-83
2020/12/29 11:55:23;;;;;;;2.30;0.60;;;7.80;99.90;;;;;;5058995;28;20234;-84
2020/12/29 11:57:50;;;;;;;3.35;0.80;;;7.90;99.90;;;;;;5058440;28;20272;-82
2020/12/29 12:00:17;;;;;;;3.17;0.80;;;7.90;99.90;;;;;;5040673;28;20211;-79
2020/12/29 12:02:44;;;;;;;2.63;0.75;;;7.70;99.90;;;;;;5038155;28;20217;-78
2020/12/29 12:05:12;;;;;;;5.18;1.50;;;7.80;99.90;;;;;;5054285;28;20194;-79
2020/12/29 12:07:40;;;;;;;6.00;1.40;;;7.80;99.90;;;;;;5056026;28;20253;-78
2020/12/29 12:10:08;;;;;;;2.80;0.93;;;7.60;99.90;;;;;;5060518;28;20625;-89
2020/12/29 12:12:35;;;;;;;4.47;1.20;;;7.30;99.90;;;;;;5058913;28;20217;-81
2020/12/29 12:15:01;;;;;;;2.35;0.60;;;7.40;99.90;;;;;;5047461;28;20218;-87
2020/12/29 12:17:28;;;;;;;2.75;1.02;;;7.30;99.90;;;;;;5053021;28;20251;-78
2020/12/29 12:19:55;;;;;;;3.20;0.95;;;7.40;99.90;;;;;;5039493;28;20588;-84
2020/12/29 12:22:22;;;;;;;2.10;0.57;;;7.40;99.90;;;;;;5040169;28;20207;-83
2020/12/29 12:24:48;;;;;;;2.28;0.88;;;7.50;99.90;;;;;;5039710;28;20226;-84
2020/12/29 12:27:15;;;;;;;2.50;0.80;;;7.50;99.90;;;;;;5058157;28;20225;-84
2020/12/29 12:29:41;;;;;;;3.47;1.00;;;7.70;99.90;;;;;;5058689;28;20206;-85
2020/12/29 12:32:08;;;;;;;3.53;1.45;;;7.50;99.90;;;;;;5058652;28;20264;-85
2020/12/29 12:34:34;;;;;;;3.25;1.20;;;7.60;99.90;;;;;;5059808;28;20237;-84
2020/12/29 12:37:02;;;;;;;3.40;0.82;;;7.70;99.90;;;;;;5060730;28;20269;-84
2020/12/29 12:39:28;;;;;;;2.90;0.90;;;7.80;99.90;;;;;;5072029;28;20263;-84
2020/12/29 12:41:55;;;;;;;4.90;1.13;;;7.70;99.90;;;;;;5070297;28;20202;-84
2020/12/29 12:44:22;;;;;;;2.60;1.00;;;7.80;99.90;;;;;;5059183;28;20624;-83
2020/12/29 12:46:48;;;;;;;5.28;1.30;;;7.50;99.90;;;;;;5064795;28;20278;-84
2020/12/29 12:49:15;;;;;;;2.90;1.20;;;7.50;99.90;;;;;;5064268;28;20222;-83
2020/12/29 12:51:47;;;;;;;3.72;1.30;;;7.50;99.90;;;;;;5074447;28;20372;-82
2020/12/29 12:54:15;;;;;;;3.70;0.82;;;7.60;99.90;;;;;;5068971;28;20237;-86
2020/12/29 12:56:43;;;;;;;4.43;1.55;;;7.40;99.90;;;;;;5058926;28;20328;-86
2020/12/29 12:59:11;;;;;;;7.82;1.95;;;7.70;99.90;;;;;;5058384;28;20366;-84
2020/12/29 13:01:38;;;;;;;2.70;1.05;;;7.50;99.90;;;;;;5059584;28;20554;-85